Time;durP1;ratioP1;P1;durP2;ratioP2;P2;SDS_P1;SDS_P2;PMS_P1;PMS_P2;Temp;Humidity;BMP_temperature;BMP_pressure;BME280_temperature;BME280_humidity;BME280_pressure;Samples;Min_cycle;Max_cycle;Signal;HPM_P1;HPM_P2
2021/04/30 16:24:25;;;;;;;6.85;2.85;;;;;;;11.75;49.17;99678.19;5072640;27;20133;-78
2021/04/30 16:26:52;;;;;;;3.63;3.00;;;;;;;11.90;48.06;99670.16;5056471;28;20172;-79
2021/04/30 16:29:20;;;;;;;6.38;3.15;;;;;;;12.21;46.89;99673.25;5051010;28;20048;-79
2021/04/30 16:31:49;;;;;;;4.75;2.88;;;;;;;12.47;46.42;99675.50;5051727;28;20057;-78
2021/04/30 16:34:17;;;;;;;17.08;7.93;;;;;;;12.02;44.52;99674.38;5032065;28;20053;-78
2021/04/30 16:36:46;;;;;;;5.72;3.50;;;;;;;11.98;45.99;99683.16;5060777;28;20045;-79
2021/04/30 16:39:13;;;;;;;6.32;3.72;;;;;;;12.16;46.27;99675.06;5047520;28;20041;-79
2021/04/30 16:41:40;;;;;;;7.57;3.53;;;;;;;12.29;45.44;99670.50;5047852;28;20057;-79
2021/04/30 16:48:06;;;;;;;6.45;3.17;;;;;;;12.31;44.44;99672.22;5050475;28;20047;-78
2021/04/30 16:50:34;;;;;;;4.70;3.30;;;;;;;12.44;44.06;99667.66;5030912;28;20044;-78
2021/04/30 16:57:13;;;;;;;5.82;3.15;;;;;;;12.53;43.36;99670.13;5056546;28;20052;-86
2021/04/30 16:59:40;;;;;;;4.68;3.17;;;;;;;11.93;45.99;99675.38;5055121;28;20048;-82
2021/04/30 17:02:07;;;;;;;7.22;4.13;;;;;;;11.90;45.69;99670.16;5021813;28;20048;-87
2021/04/30 17:04:34;;;;;;;4.95;3.20;;;;;;;11.94;45.11;99674.47;5031357;28;20163;-87
2021/04/30 17:07:01;;;;;;;6.93;3.90;;;;;;;12.04;45.78;99681.31;5032291;28;20180;-85
2021/04/30 17:09:28;;;;;;;5.63;3.53;;;;;;;11.94;45.92;99682.31;5044117;28;20144;-85
2021/04/30 17:11:55;;;;;;;7.50;3.50;;;;;;;11.59;47.06;99679.25;5034313;28;20076;-86
2021/04/30 17:14:22;;;;;;;7.38;3.75;;;;;;;11.72;47.47;99683.47;5026831;28;20041;-87
2021/04/30 17:16:56;;;;;;;8.70;3.88;;;;;;;11.44;47.94;99682.03;5064733;28;20041;-79
2021/04/30 17:23:49;;;;;;;4.32;3.40;;;;;;;11.06;47.55;99682.44;5043973;28;20055;-88
2021/04/30 17:26:17;;;;;;;5.18;3.33;;;;;;;11.21;48.62;99684.91;5007682;28;20050;-86
2021/04/30 17:28:45;;;;;;;6.38;3.40;;;;;;;11.31;48.50;99687.44;5015285;28;20052;-86
2021/04/30 17:31:11;;;;;;;6.03;4.00;;;;;;;11.36;48.99;99693.47;5000009;28;20057;-86
2021/04/30 17:33:38;;;;;;;7.68;4.25;;;;;;;9.82;56.53;99711.13;5010345;28;20057;-80
2021/04/30 17:36:06;;;;;;;4.47;3.60;;;;;;;8.99;60.76;99690.47;4980277;28;20046;-86
2021/04/30 18:11:21;;;;;;;8.77;4.43;;;;;;;8.88;66.69;99745.19;5094229;27;20400;-88
2021/04/30 18:13:48;;;;;;;6.97;4.63;;;;;;;8.79;66.10;99747.81;5071221;28;20036;-88
2021/04/30 18:16:14;;;;;;;8.45;4.43;;;;;;;8.96;65.14;99742.59;5066904;28;20082;-88
2021/04/30 18:18:41;;;;;;;4.68;4.18;;;;;;;8.67;66.65;99747.81;5063085;28;20356;-84
2021/04/30 18:21:07;;;;;;;9.05;4.18;;;;;;;8.93;66.55;99750.41;5074602;28;20032;-90
2021/04/30 18:23:34;;;;;;;5.45;3.67;;;;;;;8.89;64.31;99752.16;5062208;28;20131;-88
2021/04/30 18:26:00;;;;;;;8.48;4.80;;;;;;;9.33;64.27;99754.72;5061186;28;20115;-89
2021/04/30 18:28:27;;;;;;;9.65;4.38;;;;;;;9.52;63.13;99753.81;5043387;28;20075;-89
2021/04/30 18:30:55;;;;;;;7.13;4.75;;;;;;;9.66;62.69;99759.00;5056237;28;20612;-85
2021/04/30 18:33:23;;;;;;;6.10;4.05;;;;;;;8.98;65.09;99759.09;5064314;28;20060;-87
2021/04/30 18:35:53;;;;;;;7.32;3.95;;;;;;;9.16;64.39;99759.06;5079034;28;20122;-88
2021/04/30 18:38:21;;;;;;;10.38;4.18;;;;;;;8.85;65.23;99767.78;5075707;28;20076;-89
2021/04/30 18:40:48;;;;;;;5.90;4.15;;;;;;;8.68;66.26;99767.78;5034932;28;20103;-89
2021/04/30 18:43:36;;;;;;;6.13;4.13;;;;;;;8.67;66.23;99771.25;5061705;28;20113;-89
2021/04/30 18:46:03;;;;;;;6.78;5.28;;;;;;;8.48;67.54;99769.47;5042604;28;20052;-90
2021/04/30 18:48:30;;;;;;;7.38;5.10;;;;;;;8.66;67.13;99769.50;5063465;28;20065;-89
2021/04/30 18:50:57;;;;;;;11.77;5.68;;;;;;;8.56;67.66;99762.53;5055205;28;20148;-87
2021/04/30 18:53:25;;;;;;;9.45;5.30;;;;;;;8.80;66.62;99770.38;5073174;28;20043;-88
2021/04/30 18:55:52;;;;;;;7.35;6.43;;;;;;;8.74;67.11;99767.75;5056111;28;20036;-88
2021/04/30 18:58:19;;;;;;;14.98;7.53;;;;;;;8.60;68.11;99767.75;5041476;28;20057;-89
2021/04/30 19:00:46;;;;;;;9.10;6.80;;;;;;;8.32;69.01;99768.56;5054170;28;20072;-88
2021/04/30 19:03:13;;;;;;;10.98;6.68;;;;;;;8.50;68.84;99778.13;5061935;28;20094;-86
2021/04/30 19:05:41;;;;;;;9.02;6.75;;;;;;;8.02;70.11;99771.88;5059421;28;20130;-88
2021/04/30 19:08:07;;;;;;;10.35;7.72;;;;;;;8.15;69.75;99775.41;5073199;28;20049;-86
2021/04/30 19:10:39;;;;;;;9.73;7.53;;;;;;;8.60;68.59;99779.91;5063228;28;20036;-87
2021/04/30 19:13:08;;;;;;;9.77;7.53;;;;;;;8.24;69.96;99783.25;5038876;28;20091;-86
2021/04/30 19:15:51;;;;;;;11.23;7.68;;;;;;;8.35;69.68;99783.31;5056125;28;20120;-89
2021/04/30 19:18:18;;;;;;;13.32;8.57;;;;;;;8.27;70.40;99784.13;5064893;28;20056;-87
2021/04/30 19:20:45;;;;;;;12.13;7.68;;;;;;;8.31;70.22;99785.03;5061830;28;20389;-87
2021/04/30 19:23:11;;;;;;;10.32;7.53;;;;;;;8.28;69.48;99783.28;5036895;28;20439;-87
2021/04/30 19:25:40;;;;;;;13.57;7.43;;;;;;;8.35;69.72;99786.78;5074685;28;20066;-82
2021/04/30 19:28:08;;;;;;;9.68;6.82;;;;;;;8.37;69.22;99790.25;5030563;28;20049;-86
2021/04/30 19:30:37;;;;;;;13.25;9.27;;;;;;;7.92;71.38;99788.31;5043745;28;20044;-89
2021/04/30 19:33:05;;;;;;;13.70;9.20;;;;;;;8.17;70.24;99787.56;5037380;28;20093;-86
2021/04/30 19:35:31;;;;;;;16.10;8.70;;;;;;;8.07;70.56;99808.31;5014063;28;20088;-88
2021/04/30 19:38:07;;;;;;;16.83;9.77;;;;;;;8.17;70.12;99800.56;5037082;28;20079;-90
2021/04/30 19:40:35;;;;;;;10.40;7.47;;;;;;;8.49;69.41;99813.72;5026265;28;20136;-88
2021/04/30 19:43:05;;;;;;;11.40;6.95;;;;;;;8.23;69.60;99811.00;5039305;28;20078;-88
2021/04/30 19:45:32;;;;;;;12.02;8.40;;;;;;;8.20;69.58;99810.13;5028500;28;20137;-88
2021/04/30 19:47:59;;;;;;;9.75;6.40;;;;;;;8.07;70.66;99813.53;5009861;28;20539;-87
2021/04/30 19:50:28;;;;;;;11.82;6.80;;;;;;;8.05;71.10;99817.88;5030515;28;20053;-86
2021/04/30 19:52:57;;;;;;;9.70;6.95;;;;;;;7.57;72.44;99819.34;5034951;28;20186;-86
2021/04/30 19:55:24;;;;;;;9.57;7.38;;;;;;;7.45;72.72;99827.03;4990526;28;20045;-87
2021/04/30 19:57:55;;;;;;;12.15;7.13;;;;;;;7.77;71.92;99827.28;5023154;28;20077;-86
2021/04/30 20:00:24;;;;;;;15.55;7.13;;;;;;;7.66;72.17;99827.19;5024483;28;20045;-85
2021/04/30 20:02:52;;;;;;;10.75;7.13;;;;;;;7.63;71.83;99829.75;5042434;28;20049;-88
2021/04/30 20:05:21;;;;;;;13.00;7.53;;;;;;;7.93;71.55;99834.28;5026353;28;20041;-88
2021/04/30 20:07:48;;;;;;;8.52;6.90;;;;;;;7.99;71.47;99833.44;5048774;28;20041;-88
2021/04/30 20:10:15;;;;;;;9.07;7.05;;;;;;;8.43;69.49;99841.47;5044901;28;20063;-87
2021/04/30 20:12:42;;;;;;;7.65;6.30;;;;;;;7.69;71.02;99837.59;5045433;28;20124;-85
2021/04/30 20:15:12;;;;;;;10.88;6.22;;;;;;;7.32;71.59;99844.28;5044974;28;20052;-86
2021/04/30 20:17:39;;;;;;;9.57;6.65;;;;;;;7.69;70.64;99844.53;5021321;28;20053;-86
2021/04/30 20:20:09;;;;;;;7.60;6.80;;;;;;;7.53;71.58;99842.72;5042212;28;20045;-83
2021/04/30 20:22:38;;;;;;;9.18;6.57;;;;;;;7.58;70.84;99844.44;5037900;28;20065;-87
2021/04/30 20:25:13;;;;;;;11.98;6.43;;;;;;;7.55;71.25;99846.16;5042061;28;20356;-84
2021/04/30 20:27:47;;;;;;;9.05;6.90;;;;;;;7.51;70.82;99844.41;5034808;28;20127;-85
2021/04/30 20:30:17;;;;;;;10.43;7.00;;;;;;;7.73;70.06;99835.88;5023158;28;20076;-86
2021/04/30 20:32:44;;;;;;;7.80;6.45;;;;;;;7.68;70.32;99848.00;5042182;28;20136;-86
2021/04/30 20:35:13;;;;;;;9.05;6.90;;;;;;;7.18;71.64;99852.81;5046161;28;20143;-85
2021/04/30 20:37:41;;;;;;;6.90;4.43;;;;;;;6.53;72.15;99843.50;5004622;28;20057;-86
2021/04/30 20:40:09;;;;;;;4.80;4.25;;;;;;;6.39;73.31;99845.09;5043790;28;20067;-81
2021/04/30 20:42:36;;;;;;;4.47;3.03;;;;;;;6.25;72.61;99844.03;5039616;28;20444;-86
2021/04/30 20:45:05;;;;;;;4.28;3.72;;;;;;;6.53;72.01;99846.09;5024950;28;20055;-87
2021/04/30 20:47:33;;;;;;;5.68;4.22;;;;;;;6.72;71.81;99846.28;5052522;28;20093;-86
2021/04/30 20:50:04;;;;;;;7.47;5.72;;;;;;;6.76;72.29;99850.69;5032329;28;20076;-86
2021/04/30 20:52:31;;;;;;;9.70;5.40;;;;;;;6.54;72.83;99855.63;5046843;28;20108;-87
2021/04/30 20:54:58;;;;;;;7.60;5.55;;;;;;;6.12;74.61;99853.41;5065189;28;20127;-87
2021/04/30 20:57:28;;;;;;;7.43;5.60;;;;;;;6.11;75.78;99863.75;5059423;28;20113;-86
2021/04/30 20:59:54;;;;;;;8.65;4.90;;;;;;;5.88;76.03;99863.44;5043806;28;20059;-86
2021/04/30 21:02:21;;;;;;;7.20;5.45;;;;;;;6.11;75.77;99859.44;5053054;28;20095;-81
2021/04/30 21:04:49;;;;;;;10.98;5.45;;;;;;;6.03;76.93;99863.66;5057864;28;20044;-83
2021/04/30 21:07:16;;;;;;;8.07;5.32;;;;;;;5.75;77.78;99866.69;5027429;28;20099;-83
2021/04/30 21:09:44;;;;;;;7.47;5.00;;;;;;;5.43;78.71;99873.97;5035368;28;20056;-85
2021/04/30 21:14:39;;;;;;;10.13;6.20;;;;;;;5.76;78.78;99864.94;5053207;28;20484;-81
2021/04/30 21:17:13;;;;;;;8.25;5.78;;;;;;;5.86;78.10;99867.69;5044489;28;20496;-80
2021/04/30 21:19:44;;;;;;;8.18;5.90;;;;;;;5.94;77.57;99868.72;5057548;28;20059;-77
2021/04/30 21:22:14;;;;;;;8.45;6.07;;;;;;;6.62;75.98;99871.28;5044075;28;20056;-80
2021/04/30 21:24:44;;;;;;;9.20;7.03;;;;;;;6.97;75.18;99877.72;5058918;28;20067;-81
2021/04/30 21:27:12;;;;;;;9.70;7.28;;;;;;;7.03;74.93;99869.13;5029693;28;20071;-77
2021/04/30 21:29:39;;;;;;;11.13;6.32;;;;;;;6.98;74.59;99870.81;5034700;28;20037;-78
2021/04/30 21:32:07;;;;;;;11.90;6.70;;;;;;;7.25;74.48;99876.25;5045651;28;20048;-79
2021/04/30 21:34:34;;;;;;;9.32;6.38;;;;;;;7.21;74.01;99881.41;5061410;28;20049;-80
2021/04/30 21:37:02;;;;;;;6.07;5.47;;;;;;;7.50;73.87;99881.66;5040791;28;20048;-78
2021/04/30 21:39:31;;;;;;;6.60;5.15;;;;;;;7.62;73.06;99876.56;5051597;28;20115;-76
2021/04/30 21:41:57;;;;;;;10.60;5.63;;;;;;;7.58;73.48;99882.63;5062607;28;20153;-77
2021/04/30 21:44:25;;;;;;;9.40;6.20;;;;;;;7.58;73.15;99885.22;5038407;28;20403;-81
2021/04/30 22:04:47;;;;;;;9.32;6.07;;;;;;;7.68;74.68;99880.06;5027434;28;20482;-79
2021/04/30 22:07:14;;;;;;;8.02;5.50;;;;;;;7.61;73.61;99888.69;4982459;28;20053;-77
2021/04/30 22:09:40;;;;;;;9.02;4.85;;;;;;;7.62;73.79;99874.84;4983786;28;20077;-76
2021/04/30 22:12:16;;;;;;;7.43;4.97;;;;;;;8.06;73.03;99879.44;4970478;28;20049;-78
2021/04/30 22:14:43;;;;;;;9.13;5.50;;;;;;;8.00;72.34;99880.28;4980157;28;20089;-78
2021/04/30 22:17:15;;;;;;;8.18;4.90;;;;;;;7.54;72.88;99880.81;4984699;28;20042;-76
2021/04/30 22:19:43;;;;;;;9.00;5.85;;;;;;;7.68;73.30;99874.00;4980522;28;20050;-79
2021/04/30 22:22:09;;;;;;;7.78;4.82;;;;;;;7.89;72.51;99871.53;4964415;28;20150;-76
2021/04/30 22:24:36;;;;;;;8.98;5.10;;;;;;;8.10;71.73;99878.63;4951395;28;20043;-78
2021/04/30 22:27:03;;;;;;;9.05;5.35;;;;;;;8.11;71.32;99872.53;4958189;28;20046;-77
2021/04/30 22:29:30;;;;;;;9.10;5.57;;;;;;;8.05;71.49;99876.00;4966729;28;20062;-78
2021/04/30 22:31:56;;;;;;;8.93;5.43;;;;;;;8.02;72.27;99877.69;4962046;28;20043;-77
2021/04/30 22:34:23;;;;;;;9.38;5.38;;;;;;;8.01;71.54;99878.56;4966662;28;20138;-78
2021/04/30 22:40:31;;;;;;;8.05;6.03;;;;;;;7.69;72.78;99866.22;4976645;28;20498;-80
2021/04/30 22:42:58;;;;;;;6.93;5.60;;;;;;;7.96;71.87;99867.25;4956601;28;20043;-79
2021/04/30 22:45:25;;;;;;;10.02;6.05;;;;;;;7.99;71.54;99870.75;4945935;28;20047;-77
2021/04/30 22:47:52;;;;;;;6.50;5.22;;;;;;;8.09;71.38;99869.94;4983823;28;20042;-80
2021/04/30 22:50:19;;;;;;;7.97;5.65;;;;;;;7.99;71.25;99872.47;4957357;28;20058;-79
2021/04/30 22:52:48;;;;;;;8.02;5.63;;;;;;;8.22;70.89;99869.13;4977061;28;20154;-80
2021/04/30 22:55:15;;;;;;;6.20;5.38;;;;;;;8.24;70.97;99874.34;4972556;28;20050;-81
2021/04/30 22:57:42;;;;;;;10.13;6.53;;;;;;;7.91;72.69;99866.38;4940287;28;20573;-77
2021/04/30 23:00:09;;;;;;;7.43;6.18;;;;;;;8.33;70.75;99866.63;4970529;28;20054;-84
2021/04/30 23:02:37;;;;;;;7.68;5.97;;;;;;;8.32;70.66;99862.25;4941312;28;20057;-80
2021/04/30 23:05:05;;;;;;;7.05;5.03;;;;;;;8.29;70.60;99868.34;4942954;28;20511;-80
2021/04/30 23:07:31;;;;;;;8.20;5.35;;;;;;;8.44;70.75;99867.50;4962231;28;20088;-80
2021/04/30 23:09:58;;;;;;;7.75;5.38;;;;;;;8.63;70.20;99865.88;4969977;28;20136;-81
2021/04/30 23:12:25;;;;;;;11.18;5.32;;;;;;;8.52;70.41;99860.63;4978224;28;20396;-81
2021/04/30 23:14:53;;;;;;;10.75;5.20;;;;;;;8.70;69.79;99868.47;4973860;28;20051;-77
2021/04/30 23:17:19;;;;;;;8.18;5.30;;;;;;;8.70;69.38;99876.28;4966044;28;20066;-81
2021/04/30 23:19:47;;;;;;;11.20;5.32;;;;;;;8.32;71.02;99870.94;4931923;29;20048;-78
2021/04/30 23:22:14;;;;;;;7.00;5.25;;;;;;;8.56;70.40;99864.09;4940482;28;20039;-79
2021/04/30 23:24:40;;;;;;;6.93;4.93;;;;;;;8.58;70.08;99871.06;4946911;28;20102;-78
2021/04/30 23:27:07;;;;;;;10.15;5.05;;;;;;;8.64;69.23;99863.25;4949632;28;20047;-81
2021/04/30 23:29:41;;;;;;;6.55;4.53;;;;;;;8.52;69.49;99871.03;4954299;28;20072;-81
2021/04/30 23:32:08;;;;;;;6.95;4.95;;;;;;;8.54;69.67;99865.81;4952717;28;20419;-80
2021/04/30 23:34:35;;;;;;;7.75;5.13;;;;;;;8.49;70.01;99863.19;4963604;28;20654;-81
2021/04/30 23:37:01;;;;;;;5.78;4.60;;;;;;;8.22;70.78;99865.66;4932677;28;20035;-78
2021/04/30 23:39:29;;;;;;;5.85;4.60;;;;;;;8.56;70.19;99867.56;4958953;28;20114;-80
2021/04/30 23:41:55;;;;;;;6.97;5.00;;;;;;;8.57;69.67;99869.31;4948980;28;20062;-81
2021/04/30 23:44:22;;;;;;;8.32;5.22;;;;;;;8.69;69.39;99873.66;4947538;28;20055;-81
2021/04/30 23:46:49;;;;;;;9.00;5.35;;;;;;;8.63;69.78;99873.69;4951877;28;20474;-82
2021/04/30 23:49:16;;;;;;;6.80;4.88;;;;;;;8.67;69.52;99873.69;4965592;28;20058;-82
2021/04/30 23:51:42;;;;;;;10.35;5.40;;;;;;;8.75;69.35;99866.75;4945957;28;20055;-79
2021/04/30 23:54:11;;;;;;;7.90;5.00;;;;;;;8.79;69.35;99865.00;4957642;28;20066;-81
2021/04/30 23:56:38;;;;;;;6.60;5.28;;;;;;;8.44;70.46;99858.84;4930599;28;20543;-80
2021/04/30 23:59:07;;;;;;;7.18;5.25;;;;;;;8.46;70.50;99863.19;4951041;28;20311;-82
